Time;durP1;ratioP1;P1;durP2;ratioP2;P2;SDS_P1;SDS_P2;PMS_P1;PMS_P2;Temp;Humidity;BMP_temperature;BMP_pressure;BME280_temperature;BME280_humidity;BME280_pressure;Samples;Min_cycle;Max_cycle;Signal;HPM_P1;HPM_P2
2023/07/15 00:02:11;;;;;;;4.93;3.10;;;;;;;23.04;55.42;99838.06;7636403;32;37348;-82
2023/07/15 00:06:27;;;;;;;9.30;3.80;;;;;;;22.85;56.16;99841.50;7659708;32;39993;-82
2023/07/15 00:10:46;;;;;;;5.60;3.28;;;;;;;22.95;55.72;99836.59;7659211;32;39865;-81
2023/07/15 00:15:02;;;;;;;4.60;3.08;;;;;;;22.86;56.07;99837.56;7659497;32;38051;-82
2023/07/15 00:19:22;;;;;;;5.55;3.30;;;;;;;22.87;56.16;99839.19;7659520;32;37205;-82
2023/07/15 00:23:38;;;;;;;6.45;3.55;;;;;;;22.92;56.08;99840.09;7659447;32;39386;-82
2023/07/15 00:27:54;;;;;;;4.90;3.08;;;;;;;22.73;56.79;99838.75;7659236;32;39917;-82
2023/07/15 00:32:14;;;;;;;5.95;3.58;;;;;;;22.96;56.13;99835.44;7659146;32;37918;-82
2023/07/15 00:36:34;;;;;;;6.75;3.70;;;;;;;22.65;57.31;99837.75;7658103;32;37739;-82
2023/07/15 00:40:50;;;;;;;6.55;3.87;;;;;;;22.76;56.97;99829.72;7658591;32;39376;-81
2023/07/15 00:45:06;;;;;;;7.60;3.10;;;;;;;22.78;56.97;99823.81;7656813;32;40907;-81
2023/07/15 00:49:26;;;;;;;7.47;3.55;;;;;;;22.90;56.61;99828.50;7659055;32;37996;-81
2023/07/15 00:53:43;;;;;;;5.62;3.20;;;;;;;22.62;57.07;99821.78;7659029;32;37043;-82
2023/07/15 00:57:59;;;;;;;6.57;3.37;;;;;;;22.45;57.46;99822.06;7657826;32;39142;-81
2023/07/15 01:02:15;;;;;;;6.00;3.40;;;;;;;22.46;57.15;99818.94;7658929;32;39708;-81
2023/07/15 01:06:33;;;;;;;5.72;3.83;;;;;;;22.26;57.98;99820.69;7658799;32;38712;-81
2023/07/15 01:10:50;;;;;;;4.47;3.30;;;;;;;22.31;57.72;99814.12;7657318;32;37919;-82
2023/07/15 01:15:06;;;;;;;7.05;3.55;;;;;;;22.36;57.41;99810.28;7657819;32;40045;-82
2023/07/15 01:19:23;;;;;;;4.85;3.37;;;;;;;22.40;57.31;99814.78;7657835;32;40939;-81
2023/07/15 01:23:39;;;;;;;8.15;3.78;;;;;;;22.21;57.97;99807.03;7658612;32;37968;-81
2023/07/15 01:27:55;;;;;;;8.18;3.08;;;;;;;22.16;58.18;99807.28;7658690;32;37244;-82
2023/07/15 01:32:11;;;;;;;7.40;3.40;;;;;;;22.38;57.97;99807.97;7657749;32;39291;-81
2023/07/15 01:36:28;;;;;;;5.82;3.15;;;;;;;22.20;58.58;99816.53;7658674;32;40930;-81
2023/07/15 01:40:44;;;;;;;4.72;3.47;;;;;;;22.27;58.40;99805.69;7658018;32;38760;-81
2023/07/15 01:45:00;;;;;;;7.87;3.72;;;;;;;22.21;58.81;99815.38;7657462;32;37753;-80
2023/07/15 01:49:16;;;;;;;6.62;3.85;;;;;;;22.32;58.52;99810.19;7638570;32;40170;-81
2023/07/15 01:53:33;;;;;;;7.22;3.70;;;;;;;22.12;59.25;99809.16;7657476;32;40873;-82
2023/07/15 01:57:49;;;;;;;10.98;3.95;;;;;;;22.22;59.02;99816.19;7658254;32;37903;-81
2023/07/15 02:02:05;;;;;;;6.87;3.70;;;;;;;22.31;58.88;99808.56;7658253;32;37855;-82
2023/07/15 02:06:22;;;;;;;10.73;4.15;;;;;;;22.11;59.52;99816.66;7643473;32;39911;-81
2023/07/15 02:10:38;;;;;;;8.43;3.90;;;;;;;21.96;60.32;99822.94;7635232;32;39804;-82
2023/07/15 02:14:55;;;;;;;5.75;3.53;;;;;;;22.16;59.67;99807.28;7657321;32;37982;-81
2023/07/15 02:19:11;;;;;;;8.35;4.10;;;;;;;22.16;59.69;99812.03;7658008;32;37714;-81
2023/07/15 02:23:29;;;;;;;6.37;3.67;;;;;;;22.15;59.80;99805.69;7657990;32;39887;-81
2023/07/15 02:27:45;;;;;;;6.75;3.75;;;;;;;22.09;59.76;99807.06;7657574;32;39988;-81
2023/07/15 02:32:02;;;;;;;5.70;3.70;;;;;;;22.10;59.39;99808.69;7656660;32;35650;-82
2023/07/15 02:36:18;;;;;;;6.75;3.70;;;;;;;21.80;60.21;99817.28;7657779;32;37117;-81
2023/07/15 02:40:35;;;;;;;6.43;3.75;;;;;;;21.80;60.85;99816.44;7657428;32;40134;-82
2023/07/15 02:44:51;;;;;;;5.85;3.90;;;;;;;21.82;60.20;99820.50;7657444;32;41354;-82
2023/07/15 02:49:07;;;;;;;6.50;3.85;;;;;;;21.78;60.17;99818.75;7657437;32;35660;-82
2023/07/15 02:53:26;;;;;;;6.57;3.65;;;;;;;21.58;61.27;99815.75;7635675;32;38010;-82
2023/07/15 02:57:42;;;;;;;8.90;3.78;;;;;;;21.71;60.63;99825.72;7644216;32;39396;-82
2023/07/15 03:01:58;;;;;;;5.53;3.67;;;;;;;21.63;60.57;99823.03;7657091;32;40045;-81
2023/07/15 03:06:14;;;;;;;6.65;4.05;;;;;;;21.61;60.84;99826.16;7660077;32;38719;-81
2023/07/15 03:10:31;;;;;;;10.27;4.37;;;;;;;21.55;61.06;99827.53;7660061;32;37574;-81
2023/07/15 03:14:48;;;;;;;7.62;3.70;;;;;;;21.55;61.11;99825.56;7660206;32;40186;-81
2023/07/15 03:19:04;;;;;;;7.35;4.40;;;;;;;21.50;61.42;99817.47;7660203;32;39921;-82
2023/07/15 03:23:20;;;;;;;7.93;3.53;;;;;;;21.52;61.49;99819.91;7660030;32;38596;-81
2023/07/15 03:27:37;;;;;;;6.12;3.92;;;;;;;21.43;61.84;99822.75;7659929;32;37011;-81
2023/07/15 03:31:53;;;;;;;6.95;3.70;;;;;;;21.52;61.84;99825.44;7660009;32;39922;-81
2023/07/15 03:36:09;;;;;;;6.53;3.72;;;;;;;21.42;62.21;99821.16;7660035;32;39640;-81
2023/07/15 03:40:26;;;;;;;9.25;4.10;;;;;;;21.54;62.12;99821.19;7659503;32;38801;-82
2023/07/15 03:44:42;;;;;;;6.90;3.60;;;;;;;21.45;62.62;99830.72;7659289;32;37053;-81
2023/07/15 03:48:58;;;;;;;6.30;3.87;;;;;;;21.47;62.57;99834.00;7659852;32;40262;-81
2023/07/15 03:53:15;;;;;;;9.40;4.00;;;;;;;21.60;61.91;99819.00;7659733;32;40868;-81
2023/07/15 03:57:31;;;;;;;6.40;3.65;;;;;;;21.60;61.38;99821.75;7659702;32;37598;-81
2023/07/15 04:01:47;;;;;;;6.78;3.83;;;;;;;21.57;60.40;99830.75;7659724;32;37821;-81
2023/07/15 04:06:04;;;;;;;5.60;3.67;;;;;;;21.60;60.31;99813.44;7652857;32;39536;-81
2023/07/15 04:10:20;;;;;;;8.27;3.92;;;;;;;21.67;59.62;99813.66;7634062;32;40814;-81
2023/07/15 04:14:37;;;;;;;6.87;4.30;;;;;;;21.77;59.51;99812.41;7658861;32;37817;-81
2023/07/15 04:18:53;;;;;;;6.50;4.20;;;;;;;21.91;58.91;99812.88;7659376;32;37870;-82
2023/07/15 04:23:09;;;;;;;9.48;4.28;;;;;;;21.83;60.49;99822.09;7659552;32;39434;-81
2023/07/15 04:27:26;;;;;;;7.22;4.18;;;;;;;21.78;62.17;99827.88;7659212;32;40009;-81
2023/07/15 04:31:42;;;;;;;6.87;4.18;;;;;;;21.98;61.53;99834.50;7659213;32;37919;-82
2023/07/15 04:35:58;;;;;;;6.97;3.80;;;;;;;21.97;61.52;99821.75;7659310;32;37848;-82
2023/07/15 04:40:15;;;;;;;5.20;3.47;;;;;;;22.09;60.67;99830.09;7659044;32;39607;-81
2023/07/15 04:44:32;;;;;;;6.47;3.72;;;;;;;22.20;58.66;99829.62;7632964;32;40882;-82
2023/07/15 04:48:49;;;;;;;5.53;3.65;;;;;;;22.35;57.34;99837.25;7634025;32;38718;-81
2023/07/15 04:53:05;;;;;;;6.32;3.50;;;;;;;22.62;56.68;99843.22;7658893;32;37820;-82
2023/07/15 04:57:21;;;;;;;6.07;3.60;;;;;;;22.83;55.85;99841.03;7658824;32;39188;-82
2023/07/15 05:01:38;;;;;;;6.47;3.53;;;;;;;22.83;55.50;99838.25;7658939;32;41499;-82
2023/07/15 05:05:54;;;;;;;11.20;4.03;;;;;;;23.13;54.59;99851.00;7658801;32;38007;-82
2023/07/15 05:10:11;;;;;;;5.90;3.75;;;;;;;23.15;54.30;99857.84;7658863;32;37307;-82
2023/07/15 05:14:27;;;;;;;5.60;3.72;;;;;;;23.28;53.66;99850.25;7657921;32;38484;-82
2023/07/15 05:18:43;;;;;;;7.35;3.80;;;;;;;23.30;53.74;99856.28;7658723;32;39601;-81
2023/07/15 05:23:00;;;;;;;6.37;3.67;;;;;;;23.54;53.14;99862.84;7658639;32;38401;-82
2023/07/15 05:27:17;;;;;;;6.25;3.92;;;;;;;23.66;52.78;99864.75;7656286;32;37580;-81
2023/07/15 05:31:33;;;;;;;6.07;3.75;;;;;;;23.80;52.14;99867.88;7658659;32;39016;-81
2023/07/15 05:35:55;;;;;;;10.23;3.95;;;;;;;23.90;52.14;99869.34;7658575;32;39869;-66
2023/07/15 05:40:12;;;;;;;5.37;3.67;;;;;;;23.61;52.74;99863.84;7651363;32;37943;-66
2023/07/15 05:44:28;;;;;;;5.12;3.70;;;;;;;23.99;51.67;99862.44;7657968;32;37327;-66
2023/07/15 05:48:44;;;;;;;7.00;3.12;;;;;;;24.07;50.77;99868.16;7658473;32;39337;-66
2023/07/15 05:53:05;;;;;;;5.72;3.37;;;;;;;24.24;50.15;99861.41;7658253;32;40727;-66
2023/07/15 05:57:21;;;;;;;5.93;3.55;;;;;;;24.68;49.00;99859.25;7658185;32;38524;-66
2023/07/15 06:01:37;;;;;;;6.28;3.37;;;;;;;24.56;48.91;99862.16;7658228;32;37641;-67
2023/07/15 06:05:59;;;;;;;6.10;3.40;;;;;;;24.83;48.38;99870.69;7657865;32;40303;-68
2023/07/15 06:10:16;;;;;;;6.85;3.37;;;;;;;25.02;48.07;99865.09;7657512;32;40531;-69
2023/07/15 06:14:32;;;;;;;5.93;3.45;;;;;;;25.10;47.39;99875.22;7675913;32;38654;-71
2023/07/15 06:18:48;;;;;;;9.98;3.83;;;;;;;25.27;47.41;99889.94;7657993;32;37017;-68
2023/07/15 06:23:04;;;;;;;7.07;3.67;;;;;;;25.19;47.50;99891.72;7657813;32;40143;-68
2023/07/15 06:27:21;;;;;;;5.40;3.40;;;;;;;25.36;46.97;99887.72;7657640;32;40864;-67
2023/07/15 06:31:37;;;;;;;7.57;3.83;;;;;;;25.20;47.38;99892.53;7657655;32;38017;-67
2023/07/15 06:35:53;;;;;;;7.25;3.83;;;;;;;25.40;47.12;99894.16;7657617;32;37015;-67
2023/07/15 06:40:10;;;;;;;8.25;4.32;;;;;;;25.72;46.60;99887.56;7657224;32;39063;-67
2023/07/15 06:44:26;;;;;;;10.13;3.72;;;;;;;25.06;48.48;99895.84;7641739;32;40726;-67
2023/07/15 06:48:44;;;;;;;6.37;3.60;;;;;;;25.76;46.71;99892.00;7642151;32;38705;-69
2023/07/15 06:53:00;;;;;;;5.72;3.67;;;;;;;26.20;46.25;99886.00;7642639;32;37799;-68
2023/07/15 06:57:16;;;;;;;7.28;3.30;;;;;;;26.19;46.45;99886.37;7649325;32;39746;-67
2023/07/15 07:01:33;;;;;;;6.05;3.85;;;;;;;26.23;46.59;99890.84;7650002;32;40858;-67
2023/07/15 07:05:49;;;;;;;7.87;3.70;;;;;;;26.23;45.80;99884.41;7644104;32;37626;-67
2023/07/15 07:10:06;;;;;;;8.68;3.70;;;;;;;26.89;45.48;99882.19;7652409;32;37282;-67
2023/07/15 07:14:22;;;;;;;4.65;3.35;;;;;;;27.06;44.96;99879.97;7642284;32;40084;-67
2023/07/15 07:18:39;;;;;;;6.60;3.17;;;;;;;27.24;44.71;99886.59;7642861;32;40748;-67
2023/07/15 07:22:55;;;;;;;7.20;3.37;;;;;;;27.44;44.83;99878.00;7640385;32;37578;-67
2023/07/15 07:27:12;;;;;;;7.40;3.00;;;;;;;27.72;43.90;99883.91;7646709;32;37180;-65
2023/07/15 07:31:28;;;;;;;8.20;3.50;;;;;;;27.83;43.76;99877.59;7649461;32;39422;-68
2023/07/15 07:35:47;;;;;;;9.20;3.25;;;;;;;27.99;43.23;99869.72;7652359;32;39877;-78
2023/07/15 07:40:04;;;;;;;7.95;3.20;;;;;;;28.00;43.49;99864.97;7646318;32;38392;-80
2023/07/15 07:44:20;;;;;;;7.03;3.67;;;;;;;28.14;44.48;99869.84;7638556;32;37251;-80
2023/07/15 07:48:37;;;;;;;4.00;2.80;;;;;;;28.32;43.41;99865.19;7644884;32;39430;-79
2023/07/15 07:52:53;;;;;;;6.97;3.50;;;;;;;28.34;43.41;99870.38;7648271;32;39691;-79
2023/07/15 07:57:14;;;;;;;7.50;3.20;;;;;;;28.51;44.38;99871.69;7646280;32;38643;-77
2023/07/15 08:01:31;;;;;;;5.87;3.33;;;;;;;28.58;42.67;99868.94;7645439;32;37126;-77
2023/07/15 08:05:48;;;;;;;7.60;3.58;;;;;;;28.84;43.06;99867.88;7650372;32;40108;-72
2023/07/15 08:10:05;;;;;;;8.40;3.35;;;;;;;28.86;42.70;99870.31;7651017;32;39924;-71
2023/07/15 08:14:21;;;;;;;5.35;3.35;;;;;;;28.80;43.72;99867.06;7642369;32;38465;-71
2023/07/15 08:18:37;;;;;;;8.25;3.25;;;;;;;28.82;44.00;99873.88;7632840;32;37847;-70
2023/07/15 08:22:54;;;;;;;9.43;3.53;;;;;;;28.88;43.03;99870.72;7633268;32;39364;-76
2023/07/15 08:27:10;;;;;;;7.15;3.15;;;;;;;29.06;42.13;99863.13;7639622;32;40034;-77
2023/07/15 08:31:26;;;;;;;8.80;3.80;;;;;;;29.33;42.68;99860.03;7586696;32;38615;-76
2023/07/15 08:35:44;;;;;;;6.68;2.90;;;;;;;29.36;40.60;99865.66;7583030;32;37393;-77
2023/07/15 08:40:01;;;;;;;12.25;3.90;;;;;;;29.85;41.94;99870.97;7598962;32;39434;-76
2023/07/15 08:44:17;;;;;;;4.28;2.90;;;;;;;29.80;40.42;99866.53;7593815;32;40568;-77
2023/07/15 08:48:34;;;;;;;4.87;2.90;;;;;;;29.68;41.53;99864.09;7587072;32;37953;-77
2023/07/15 08:52:50;;;;;;;5.62;2.87;;;;;;;30.01;40.51;99870.53;7600675;32;37056;-77
2023/07/15 08:57:08;;;;;;;8.82;3.40;;;;;;;30.36;39.45;99875.34;7596060;32;39405;-76
2023/07/15 09:01:25;;;;;;;5.25;3.17;;;;;;;30.07;39.50;99869.75;7596520;32;39028;-76
2023/07/15 09:05:43;;;;;;;5.43;3.10;;;;;;;29.95;40.86;99862.50;7599738;32;38538;-76
2023/07/15 09:10:05;;;;;;;5.50;3.20;;;;;;;30.10;41.63;99859.72;7605417;32;36945;-77
2023/07/15 09:14:21;;;;;;;;;;;;;;;30.16;42.00;99869.31;7604547;32;39409;-77
2023/07/15 09:18:42;;;;;;;7.78;3.10;;;;;;;30.00;39.27;99866.94;7603465;32;39944;-77
2023/07/15 09:23:00;;;;;;;6.55;3.20;;;;;;;30.11;39.04;99869.72;7604072;32;40213;-77
2023/07/15 09:27:17;;;;;;;5.97;3.50;;;;;;;30.05;40.31;99869.34;7606373;32;37289;-77
2023/07/15 09:31:38;;;;;;;5.25;2.80;;;;;;;30.56;40.51;99867.25;7658644;32;39112;-77
2023/07/15 09:35:54;;;;;;;6.15;2.97;;;;;;;30.57;40.92;99871.69;7658488;32;41634;-77
2023/07/15 09:40:11;;;;;;;5.72;3.17;;;;;;;30.43;39.91;99863.28;7657194;32;38705;-77
2023/07/15 09:44:45;;;;;;;7.55;3.22;;;;;;;30.71;38.36;99863.19;7658420;32;37760;-77
2023/07/15 09:49:02;;;;;;;6.28;3.12;;;;;;;30.81;39.15;99863.56;7658516;32;39497;-77
2023/07/15 09:53:18;;;;;;;7.32;3.00;;;;;;;31.49;39.78;99851.16;7658264;32;40010;-77
2023/07/15 09:57:34;;;;;;;7.35;2.95;;;;;;;31.58;37.15;99855.13;7656970;32;37985;-77
2023/07/15 10:01:57;;;;;;;4.85;3.03;;;;;;;31.65;38.13;99840.19;7657166;32;37358;-77
2023/07/15 10:06:14;;;;;;;7.65;3.20;;;;;;;31.83;38.50;99851.31;7658036;32;39826;-77
2023/07/15 10:10:30;;;;;;;6.60;3.00;;;;;;;31.96;37.01;99845.94;7656898;32;40905;-77
2023/07/15 10:14:47;;;;;;;4.75;3.17;;;;;;;32.51;37.52;99838.56;7657206;32;37841;-77
2023/07/15 10:19:03;;;;;;;5.60;3.15;;;;;;;32.40;37.72;99844.34;7658024;32;37145;-78
2023/07/15 10:23:25;;;;;;;5.75;3.00;;;;;;;32.59;37.10;99844.94;7658001;32;40066;-77
2023/07/15 10:27:42;;;;;;;9.25;3.20;;;;;;;32.19;36.39;99834.88;7657636;32;40052;-77
2023/07/15 10:32:12;;;;;;;5.22;2.97;;;;;;;32.39;35.95;99842.72;7657745;32;38116;-77
2023/07/15 10:36:35;;;;;;;6.20;3.30;;;;;;;32.35;36.25;99839.16;7657670;32;37105;-77
2023/07/15 10:40:52;;;;;;;4.65;2.75;;;;;;;32.36;35.01;99832.31;7657585;32;40181;-78
2023/07/15 10:45:11;;;;;;;3.80;2.70;;;;;;;32.75;33.70;99831.03;7657416;32;40903;-78
2023/07/15 10:49:30;;;;;;;4.78;3.00;;;;;;;32.91;34.33;99828.44;7657382;32;38032;-78
2023/07/15 10:53:46;;;;;;;5.05;3.12;;;;;;;32.05;34.30;99834.19;7657372;32;36085;-78
2023/07/15 10:58:07;;;;;;;4.10;2.75;;;;;;;31.65;37.31;99834.56;7657194;32;39304;-78
2023/07/15 11:02:24;;;;;;;5.50;2.78;;;;;;;32.07;35.19;99821.31;7657086;32;40005;-78
2023/07/15 11:06:40;;;;;;;8.27;2.90;;;;;;;32.56;34.00;99819.16;7656947;32;38737;-78
2023/07/15 11:11:04;;;;;;;5.32;2.65;;;;;;;32.56;34.01;99821.16;7651182;32;37043;-78
2023/07/15 11:15:21;;;;;;;5.12;2.58;;;;;;;32.14;34.59;99803.53;7636878;32;38375;-81
2023/07/15 11:19:37;;;;;;;4.25;2.60;;;;;;;32.98;33.00;99802.13;7646258;32;40599;-83
2023/07/15 11:23:54;;;;;;;5.47;2.80;;;;;;;32.91;33.52;99805.06;7649569;32;37872;-81
2023/07/15 11:28:11;;;;;;;5.78;2.78;;;;;;;33.05;32.98;99799.19;7642870;32;38232;-78
2023/07/15 11:32:31;;;;;;;4.37;2.37;;;;;;;32.80;32.49;99799.53;7643099;32;38955;-79
2023/07/15 11:36:48;;;;;;;5.72;2.65;;;;;;;33.39;32.50;99800.31;7653138;32;41380;-78
2023/07/15 11:41:05;;;;;;;4.25;2.78;;;;;;;33.45;31.10;99798.62;7643176;32;38704;-79
2023/07/15 11:45:23;;;;;;;6.72;2.72;;;;;;;33.68;30.55;99790.19;7649139;32;38027;-79
2023/07/15 11:49:45;;;;;;;5.30;2.80;;;;;;;33.56;32.04;99787.91;7643686;32;40159;-80
2023/07/15 11:54:07;;;;;;;5.65;2.65;;;;;;;33.45;32.30;99781.66;7644065;32;40560;-80
2023/07/15 11:58:44;;;;;;;5.05;2.40;;;;;;;33.33;32.97;99773.78;7643825;32;37873;-79
2023/07/15 12:03:10;;;;;;;4.82;2.87;;;;;;;33.91;31.32;99767.97;7644222;32;37002;-79
2023/07/15 12:07:26;;;;;;;3.67;2.72;;;;;;;33.62;32.23;99763.59;7643726;32;39285;-79
2023/07/15 12:11:43;;;;;;;8.55;3.12;;;;;;;33.43;32.78;99767.16;7641260;32;39925;-80
2023/07/15 12:16:00;;;;;;;7.00;3.28;;;;;;;33.82;31.95;99760.03;7644219;32;38147;-78
2023/07/15 12:20:17;;;;;;;4.68;2.80;;;;;;;33.63;32.02;99765.22;7644874;32;36786;-80
2023/07/15 12:24:33;;;;;;;3.20;2.65;;;;;;;33.96;31.67;99759.78;7643640;32;39054;-80
2023/07/15 12:28:50;;;;;;;4.55;2.90;;;;;;;34.29;31.77;99753.50;7642209;32;40041;-79
2023/07/15 12:33:06;;;;;;;5.37;2.67;;;;;;;34.52;31.05;99746.97;7647393;32;38664;-77
2023/07/15 12:37:23;;;;;;;5.37;2.55;;;;;;;33.75;32.34;99754.53;7644919;32;37748;-81
2023/07/15 12:41:39;;;;;;;6.40;3.00;;;;;;;33.64;31.56;99749.84;7647618;32;39431;-80
2023/07/15 12:45:56;;;;;;;5.00;2.97;;;;;;;33.36;32.48;99742.66;7647836;32;39161;-80
2023/07/15 12:50:13;;;;;;;4.97;2.90;;;;;;;33.52;32.73;99736.31;7645674;32;38675;-80
2023/07/15 12:54:29;;;;;;;5.62;2.60;;;;;;;34.07;32.63;99736.16;7637131;32;38069;-79
2023/07/15 12:58:45;;;;;;;4.60;2.62;;;;;;;34.58;31.93;99726.22;7646833;32;39383;-82
2023/07/15 13:03:02;;;;;;;4.70;2.47;;;;;;;34.34;30.27;99728.34;7650744;32;39747;-80
2023/07/15 13:07:21;;;;;;;5.35;2.50;;;;;;;34.26;30.95;99720.47;7646117;32;38631;-81
2023/07/15 13:11:38;;;;;;;2.87;2.40;;;;;;;34.54;30.51;99714.16;7646786;32;37671;-80
2023/07/15 13:15:54;;;;;;;5.97;2.40;;;;;;;34.59;30.64;99721.34;7650529;32;39363;-82
2023/07/15 13:20:13;;;;;;;2.55;2.20;;;;;;;34.71;29.43;99715.03;7645144;32;40801;-82
2023/07/15 13:24:29;;;;;;;4.57;2.28;;;;;;;34.68;29.48;99713.03;7654211;32;37605;-80
2023/07/15 13:28:45;;;;;;;3.65;2.42;;;;;;;35.16;28.79;99694.53;7646518;32;37551;-80
2023/07/15 13:33:02;;;;;;;3.40;2.10;;;;;;;35.67;28.23;99696.06;7656592;32;40146;-82
2023/07/15 13:37:18;;;;;;;6.40;2.25;;;;;;;35.21;29.04;99703.75;7657977;32;40852;-79
2023/07/15 13:41:35;;;;;;;4.68;2.50;;;;;;;35.39;28.13;99692.75;7658130;32;37842;-80
2023/07/15 13:45:51;;;;;;;4.47;2.35;;;;;;;35.14;29.28;99699.06;7658494;32;37901;-81
2023/07/15 13:50:07;;;;;;;4.05;2.20;;;;;;;35.77;26.71;99697.84;7646767;32;39417;-81
2023/07/15 13:54:24;;;;;;;9.27;2.60;;;;;;;36.24;26.18;99693.75;7643727;32;40530;-81
2023/07/15 13:58:40;;;;;;;5.25;2.40;;;;;;;36.27;25.72;99682.28;7646361;32;37174;-79
2023/07/15 14:02:57;;;;;;;5.30;2.53;;;;;;;36.68;26.17;99676.19;7646912;32;37380;-79
2023/07/15 14:07:14;;;;;;;4.45;2.47;;;;;;;36.12;28.17;99689.59;7644370;32;39404;-79
2023/07/15 14:11:31;;;;;;;3.17;2.28;;;;;;;36.40;26.93;99684.34;7634284;32;40072;-79
2023/07/15 14:15:47;;;;;;;4.35;2.95;;;;;;;36.00;28.22;99674.13;7643556;32;37975;-80
2023/07/15 14:20:03;;;;;;;4.70;2.30;;;;;;;36.06;26.01;99678.00;7644243;32;37118;-81
2023/07/15 14:24:20;;;;;;;5.55;2.80;;;;;;;35.78;27.19;99673.94;7642899;32;38963;-81
2023/07/15 14:28:38;;;;;;;6.18;3.10;;;;;;;35.28;28.20;99680.94;7644390;32;40046;-80
2023/07/15 14:32:54;;;;;;;6.43;2.90;;;;;;;35.60;27.85;99667.94;7644429;32;38688;-79
2023/07/15 14:37:10;;;;;;;5.03;2.70;;;;;;;36.17;26.45;99657.00;7644380;32;37786;-83
2023/07/15 14:41:28;;;;;;;5.07;2.75;;;;;;;36.20;26.57;99661.78;7644582;32;40180;-79
2023/07/15 14:45:47;;;;;;;6.37;2.90;;;;;;;36.06;26.71;99655.28;7640481;32;40883;-85
2023/07/15 14:50:04;;;;;;;5.78;3.42;;;;;;;36.31;27.27;99644.47;7638935;32;38443;-85
2023/07/15 14:54:23;;;;;;;7.32;3.10;;;;;;;36.43;27.71;99649.38;7641695;32;37019;-80
2023/07/15 14:58:39;;;;;;;4.03;2.50;;;;;;;36.47;27.93;99650.06;7642637;32;38827;-80
2023/07/15 15:02:56;;;;;;;5.07;2.97;;;;;;;36.52;27.23;99648.69;7654035;32;40846;-80
2023/07/15 15:07:12;;;;;;;5.65;2.70;;;;;;;36.89;26.37;99641.41;7646750;32;37997;-80
2023/07/15 15:11:28;;;;;;;6.85;2.67;;;;;;;36.70;26.92;99642.47;7646388;32;37139;-80
2023/07/15 15:15:45;;;;;;;7.25;2.72;;;;;;;36.51;27.05;99628.00;7642912;32;39240;-79
2023/07/15 15:20:01;;;;;;;5.20;2.92;;;;;;;36.19;27.69;99635.47;7644928;32;40825;-80
2023/07/15 15:24:18;;;;;;;7.97;2.92;;;;;;;36.28;26.23;99626.31;7643567;32;38841;-79
2023/07/15 15:28:35;;;;;;;4.35;2.97;;;;;;;36.68;26.78;99631.53;7644107;32;37862;-79
2023/07/15 15:32:51;;;;;;;9.60;3.40;;;;;;;37.09;26.39;99624.12;7645003;32;39389;-79
2023/07/15 15:37:07;;;;;;;8.05;3.45;;;;;;;36.97;26.56;99631.41;7644110;32;39611;-79
2023/07/15 15:41:24;;;;;;;6.03;3.42;;;;;;;36.75;27.16;99619.19;7644597;32;38673;-79
2023/07/15 15:45:40;;;;;;;7.10;3.90;;;;;;;36.73;26.76;99621.69;7643921;32;37436;-80
2023/07/15 15:49:56;;;;;;;9.18;4.05;;;;;;;36.89;26.11;99624.38;7644317;32;40065;-80
2023/07/15 15:54:13;;;;;;;8.43;3.85;;;;;;;36.66;27.44;99625.53;7643700;32;40901;-78
2023/07/15 15:58:31;;;;;;;10.75;4.20;;;;;;;36.68;26.48;99622.22;7644907;32;38808;-79
2023/07/15 16:02:47;;;;;;;5.45;4.20;;;;;;;36.33;26.97;99616.47;7646585;32;36440;-79
2023/07/15 16:07:03;;;;;;;7.15;4.35;;;;;;;36.51;26.55;99616.66;7644112;32;38825;-77
2023/07/15 16:11:20;;;;;;;7.50;4.50;;;;;;;36.59;27.57;99603.84;7643098;32;40357;-79
2023/07/15 16:15:36;;;;;;;5.97;4.22;;;;;;;36.45;27.23;99609.97;7644188;32;37999;-79
2023/07/15 16:19:52;;;;;;;7.03;4.80;;;;;;;36.40;27.50;99607.72;7644056;32;37933;-79
2023/07/15 16:24:08;;;;;;;9.60;5.37;;;;;;;36.32;27.67;99609.97;7644387;32;39262;-79
2023/07/15 16:28:24;;;;;;;6.45;5.00;;;;;;;36.40;27.52;99613.37;7642911;32;40842;-79
2023/07/15 16:32:41;;;;;;;9.75;5.72;;;;;;;36.27;27.33;99608.50;7643053;32;37999;-81
2023/07/15 16:36:57;;;;;;;10.07;5.53;;;;;;;35.59;29.00;99612.50;7643310;32;36760;-82
2023/07/15 16:41:13;;;;;;;8.57;5.65;;;;;;;35.78;28.36;99608.72;7645401;32;39777;-81
2023/07/15 16:45:30;;;;;;;8.75;5.85;;;;;;;35.82;28.24;99605.78;7642794;32;39946;-80
2023/07/15 16:49:46;;;;;;;8.55;5.30;;;;;;;35.85;28.19;99614.19;7643951;32;38812;-79
2023/07/15 16:54:02;;;;;;;12.40;5.90;;;;;;;35.67;28.90;99611.03;7642597;32;37883;-81
2023/07/15 16:58:19;;;;;;;9.20;6.03;;;;;;;35.76;27.95;99611.22;7640995;32;39368;-79
2023/07/15 17:02:35;;;;;;;10.60;6.00;;;;;;;35.64;28.60;99609.91;7645398;32;40024;-81
2023/07/15 17:06:51;;;;;;;9.13;6.03;;;;;;;35.09;29.77;99612.56;7641973;32;38405;-82
2023/07/15 17:11:08;;;;;;;8.13;5.95;;;;;;;35.03;29.93;99607.88;7644427;32;37991;-83
2023/07/15 17:15:24;;;;;;;9.90;6.47;;;;;;;35.10;29.58;99614.19;7644799;32;40171;-80
2023/07/15 17:19:40;;;;;;;9.32;6.57;;;;;;;34.64;30.52;99615.31;7645005;32;39908;-81
2023/07/15 17:23:56;;;;;;;9.30;6.45;;;;;;;34.57;31.98;99607.78;7642214;32;38535;-82
2023/07/15 17:28:13;;;;;;;8.07;5.50;;;;;;;34.87;31.32;99611.53;7647209;32;37154;-80
2023/07/15 17:32:29;;;;;;;9.07;6.03;;;;;;;34.72;32.46;99611.91;7643066;32;40131;-81
2023/07/15 17:36:45;;;;;;;10.18;6.20;;;;;;;34.77;31.44;99619.87;7642651;32;40706;-82
2023/07/15 17:41:01;;;;;;;10.02;6.72;;;;;;;34.32;32.22;99614.81;7641171;32;38432;-83
2023/07/15 17:45:19;;;;;;;14.57;6.87;;;;;;;34.43;32.64;99623.06;7643134;32;37653;-84
2023/07/15 17:49:36;;;;;;;10.85;6.82;;;;;;;34.11;33.64;99620.94;7643543;32;39097;-82
2023/07/15 17:53:54;;;;;;;12.73;7.43;;;;;;;34.14;32.62;99612.37;7641302;32;40170;-83
2023/07/15 17:58:10;;;;;;;13.00;6.72;;;;;;;33.99;33.12;99617.53;7642081;32;38664;-82
2023/07/15 18:02:27;;;;;;;9.77;7.10;;;;;;;33.65;34.97;99610.13;7644500;32;37245;-80
2023/07/15 18:06:43;;;;;;;12.43;7.05;;;;;;;33.44;36.08;99621.84;7642091;32;40155;-80
2023/07/15 18:10:59;;;;;;;11.70;7.00;;;;;;;33.16;36.34;99620.34;7642634;32;40004;-81
2023/07/15 18:15:16;;;;;;;19.23;8.77;;;;;;;32.86;37.10;99622.84;7641092;32;36084;-81
2023/07/15 18:19:33;;;;;;;15.88;8.35;;;;;;;32.67;37.17;99620.72;7641285;32;36221;-81
2023/07/15 18:23:51;;;;;;;10.40;8.23;;;;;;;32.47;37.81;99627.03;7643115;32;39063;-79
2023/07/15 18:28:07;;;;;;;12.23;7.78;;;;;;;32.38;37.46;99629.59;7643405;32;39610;-82
2023/07/15 18:32:24;;;;;;;14.02;9.40;;;;;;;32.32;36.36;99625.63;7644974;32;38806;-83
2023/07/15 18:36:40;;;;;;;10.13;7.82;;;;;;;32.17;36.68;99628.66;7648375;32;35711;-81
2023/07/15 18:40:56;;;;;;;14.27;8.27;;;;;;;31.90;37.72;99630.59;7650787;32;39468;-84
2023/07/15 18:45:12;;;;;;;13.30;10.20;;;;;;;31.73;38.09;99636.00;7656192;32;39804;-86
2023/07/15 18:49:29;;;;;;;13.68;10.23;;;;;;;31.67;38.26;99640.53;7648163;32;38714;-83
2023/07/15 18:53:45;;;;;;;13.95;8.35;;;;;;;31.43;38.39;99643.16;7637737;32;38130;-82
2023/07/15 18:58:04;;;;;;;12.70;8.38;;;;;;;31.27;39.22;99638.09;7641954;32;39236;-82
2023/07/15 19:02:21;;;;;;;11.02;7.70;;;;;;;31.00;39.75;99649.19;7642449;32;39945;-83
2023/07/15 19:06:40;;;;;;;11.63;7.78;;;;;;;30.91;40.30;99651.66;7640938;32;37924;-82
2023/07/15 19:10:58;;;;;;;10.70;7.50;;;;;;;30.78;40.51;99648.50;7641687;32;37994;-83
2023/07/15 19:15:15;;;;;;;14.43;7.12;;;;;;;30.59;40.88;99652.66;7640551;32;39291;-83
2023/07/15 19:19:33;;;;;;;9.48;7.47;;;;;;;30.30;41.88;99661.25;7641336;32;39631;-84
2023/07/15 19:23:50;;;;;;;12.15;8.40;;;;;;;30.12;42.11;99666.16;7649400;32;39931;-86
2023/07/15 19:28:07;;;;;;;9.68;7.82;;;;;;;30.01;42.56;99668.19;7642074;32;37095;-87
2023/07/15 19:32:24;;;;;;;16.95;8.38;;;;;;;29.92;42.94;99663.81;7638334;32;39439;-82
2023/07/15 19:36:43;;;;;;;12.70;8.05;;;;;;;29.69;43.14;99664.25;7641501;32;40079;-82
2023/07/15 19:41:00;;;;;;;11.15;8.43;;;;;;;29.47;43.24;99663.50;7642049;32;37980;-81
2023/07/15 19:45:16;;;;;;;11.55;8.48;;;;;;;29.34;43.50;99663.13;7638184;32;37168;-82
2023/07/15 19:49:32;;;;;;;12.35;8.15;;;;;;;29.25;44.06;99662.72;7646621;32;40112;-82
2023/07/15 19:53:49;;;;;;;10.77;8.38;;;;;;;29.04;44.91;99669.09;7647825;32;39846;-82
2023/07/15 19:58:05;;;;;;;11.00;8.57;;;;;;;29.05;43.99;99670.72;7643450;32;38079;-83
2023/07/15 20:02:21;;;;;;;12.15;8.90;;;;;;;28.88;44.61;99663.09;7643938;32;37419;-83
2023/07/15 20:06:37;;;;;;;14.55;9.60;;;;;;;28.80;45.00;99660.28;7653621;32;39912;-87